createdAt,value
2018-05-02T00:02:19.900Z,23.40
2018-05-02T00:04:46.498Z,23.41
2018-05-02T00:07:13.150Z,23.40
2018-05-02T00:09:39.792Z,23.41
2018-05-02T00:12:06.457Z,23.39
2018-05-02T00:14:33.069Z,23.39
2018-05-02T00:16:59.780Z,23.40
2018-05-02T00:19:26.380Z,23.38
2018-05-02T00:21:53.005Z,23.38
2018-05-02T00:24:19.648Z,23.37
2018-05-02T00:26:46.272Z,23.33
2018-05-02T00:29:12.923Z,23.36
2018-05-02T00:31:39.593Z,23.37
2018-05-02T00:34:06.225Z,23.34
2018-05-02T00:36:32.840Z,23.33
2018-05-02T00:38:59.485Z,23.28
2018-05-02T00:41:26.123Z,23.30
2018-05-02T00:43:52.763Z,23.28
2018-05-02T00:46:19.440Z,23.27
2018-05-02T00:48:46.073Z,23.26
2018-05-02T00:51:12.682Z,23.25
2018-05-02T00:53:39.353Z,23.19
2018-05-02T00:56:05.965Z,23.19
2018-05-02T00:58:32.648Z,23.17
2018-05-02T01:00:59.278Z,23.20
2018-05-02T01:03:25.894Z,23.17
2018-05-02T01:05:52.563Z,23.18
2018-05-02T01:08:19.200Z,23.17
2018-05-02T01:10:45.842Z,23.12
2018-05-02T01:13:12.451Z,23.15
2018-05-02T01:15:39.120Z,23.16
2018-05-02T01:18:05.752Z,23.13
2018-05-02T01:20:32.396Z,23.10
2018-05-02T01:22:59.029Z,23.11
2018-05-02T01:25:25.667Z,23.10
2018-05-02T01:27:52.304Z,23.08
2018-05-02T01:30:18.915Z,23.08
2018-05-02T01:32:45.554Z,23.09
2018-05-02T01:35:12.223Z,23.08
2018-05-02T01:37:38.826Z,23.09
2018-05-02T01:40:05.461Z,23.05
2018-05-02T01:42:32.157Z,23.06
2018-05-02T01:44:58.800Z,23.03
2018-05-02T01:47:25.440Z,23.03
2018-05-02T01:49:52.113Z,23.01
2018-05-02T01:52:18.750Z,23.00
2018-05-02T01:54:45.342Z,22.98
2018-05-02T01:57:11.991Z,22.99
2018-05-02T01:59:38.630Z,22.99
2018-05-02T02:02:05.266Z,23.00
2018-05-02T02:04:31.936Z,23.01
2018-05-02T02:06:58.540Z,22.96
2018-05-02T02:09:25.187Z,22.93
2018-05-02T02:11:51.851Z,22.94
2018-05-02T02:14:18.510Z,22.93
2018-05-02T02:16:45.148Z,22.94
2018-05-02T02:19:11.785Z,22.89
2018-05-02T02:21:38.429Z,22.86
2018-05-02T02:24:05.093Z,22.89
2018-05-02T02:26:31.698Z,22.89
2018-05-02T02:28:58.368Z,22.88
2018-05-02T02:31:24.979Z,22.91
2018-05-02T02:33:51.613Z,22.87
2018-05-02T02:36:18.236Z,22.85
2018-05-02T02:38:44.924Z,22.80
2018-05-02T02:41:11.603Z,22.83
2018-05-02T02:43:38.216Z,22.83
2018-05-02T02:46:04.842Z,22.81
2018-05-02T02:48:31.481Z,22.80
2018-05-02T02:50:58.150Z,22.81
2018-05-02T02:53:24.786Z,22.78
2018-05-02T02:55:51.495Z,22.79
2018-05-02T02:58:18.097Z,22.73
2018-05-02T03:00:45.304Z,22.77
2018-05-02T03:03:11.955Z,22.75
2018-05-02T03:05:38.621Z,22.77
2018-05-02T03:08:05.288Z,22.68
2018-05-02T03:10:31.927Z,22.80
2018-05-02T03:12:58.525Z,22.68
2018-05-02T03:15:25.197Z,22.68
2018-05-02T03:17:51.838Z,22.66
2018-05-02T03:20:18.438Z,22.62
2018-05-02T03:22:45.099Z,22.53
2018-05-02T03:25:11.756Z,22.64
2018-05-02T03:27:38.395Z,22.57
2018-05-02T03:30:05.033Z,22.59
2018-05-02T03:32:31.704Z,22.55
2018-05-02T03:34:58.306Z,22.54
2018-05-02T03:37:24.944Z,22.47
2018-05-02T03:39:51.631Z,22.50
2018-05-02T03:42:18.240Z,22.58
2018-05-02T03:44:44.926Z,22.54
2018-05-02T03:47:11.525Z,22.62
2018-05-02T03:49:38.247Z,22.67
2018-05-02T03:52:05.210Z,22.65
2018-05-02T03:54:31.839Z,22.69
2018-05-02T03:56:58.491Z,22.85
2018-05-02T03:59:25.095Z,22.83
2018-05-02T04:01:52.841Z,22.91
2018-05-02T04:04:19.465Z,22.95
2018-05-02T04:06:46.128Z,23.01
2018-05-02T04:09:12.776Z,23.02
2018-05-02T04:11:39.399Z,23.06
2018-05-02T04:14:06.005Z,23.16
2018-05-02T04:16:32.667Z,23.15
2018-05-02T04:18:59.276Z,23.21
2018-05-02T04:21:25.900Z,23.25
2018-05-02T04:23:52.537Z,23.26
2018-05-02T04:26:19.257Z,23.31
2018-05-02T04:28:45.940Z,23.41
2018-05-02T04:31:12.575Z,23.38
2018-05-02T04:33:39.211Z,23.42
2018-05-02T04:36:05.918Z,23.45
2018-05-02T04:38:32.605Z,23.51
2018-05-02T04:40:59.258Z,23.48
2018-05-02T04:43:25.889Z,23.48
2018-05-02T04:45:52.566Z,23.42
2018-05-02T04:48:19.277Z,23.00
2018-05-02T04:50:45.922Z,22.91
2018-05-02T04:53:12.595Z,23.09
2018-05-02T04:55:39.197Z,23.30
2018-05-02T04:58:05.899Z,23.42
2018-05-02T05:00:32.499Z,23.59
2018-05-02T05:02:59.192Z,23.70
2018-05-02T05:05:25.794Z,23.68
2018-05-02T05:07:52.471Z,23.72
2018-05-02T05:10:19.112Z,23.71
2018-05-02T05:12:45.745Z,23.75
2018-05-02T05:15:12.353Z,23.78
2018-05-02T05:17:39.087Z,23.82
2018-05-02T05:20:05.698Z,23.84
2018-05-02T05:22:32.363Z,23.87
2018-05-02T05:24:58.969Z,23.90
2018-05-02T05:27:25.601Z,23.94
2018-05-02T05:29:52.369Z,23.97
2018-05-02T05:32:19.013Z,23.96
2018-05-02T05:34:46.146Z,23.97
2018-05-02T05:37:12.828Z,24.03
2018-05-02T05:39:39.471Z,24.10
2018-05-02T05:42:06.153Z,24.26
2018-05-02T05:44:32.826Z,24.27
2018-05-02T05:47:00.579Z,24.25
2018-05-02T05:49:27.264Z,24.36
2018-05-02T05:51:53.903Z,24.38
2018-05-02T05:54:20.584Z,24.40
2018-05-02T05:56:47.197Z,24.44
2018-05-02T05:59:13.882Z,24.52
2018-05-02T06:01:40.552Z,24.56
2018-05-02T06:04:07.189Z,24.63
2018-05-02T06:06:33.809Z,24.67
2018-05-02T06:09:00.469Z,24.71
2018-05-02T06:11:27.131Z,24.76
2018-05-02T06:13:53.817Z,24.83
2018-05-02T06:16:20.405Z,24.83
2018-05-02T06:18:47.112Z,24.87
2018-05-02T06:21:13.697Z,24.91
2018-05-02T06:23:40.425Z,24.93
2018-05-02T06:26:07.154Z,24.97
2018-05-02T06:28:33.754Z,24.96
2018-05-02T06:31:00.436Z,25.05
2018-05-02T06:33:27.144Z,25.11
2018-05-02T06:35:53.835Z,25.14
2018-05-02T06:38:20.567Z,25.12
2018-05-02T06:40:47.246Z,25.14
2018-05-02T06:43:13.901Z,25.25
2018-05-02T06:45:40.594Z,25.28
2018-05-02T06:48:07.231Z,25.25
2018-05-02T06:50:33.992Z,25.31
2018-05-02T06:53:00.603Z,25.31
2018-05-02T06:55:27.279Z,25.30
2018-05-02T06:57:53.941Z,25.32
2018-05-02T07:00:20.535Z,25.40
2018-05-02T07:02:47.226Z,25.26
2018-05-02T07:05:13.908Z,25.07
2018-05-02T07:07:40.730Z,24.97
2018-05-02T07:10:07.331Z,24.90
2018-05-02T07:12:33.979Z,24.88
2018-05-02T07:15:00.618Z,24.91
2018-05-02T07:17:27.302Z,24.91
2018-05-02T07:19:53.950Z,24.90
2018-05-02T07:22:20.985Z,24.92
2018-05-02T07:24:47.625Z,24.92
2018-05-02T07:27:14.249Z,24.88
2018-05-02T07:29:41.104Z,24.89
2018-05-02T07:32:07.702Z,24.84
2018-05-02T07:34:34.357Z,24.82
2018-05-02T07:37:01.057Z,24.87
2018-05-02T07:39:27.676Z,24.93
2018-05-02T07:41:54.335Z,24.86
2018-05-02T07:44:22.348Z,24.90
2018-05-02T07:46:47.635Z,24.93
2018-05-02T07:49:14.336Z,24.90
2018-05-02T07:51:41.055Z,24.88
2018-05-02T07:54:07.736Z,24.83
2018-05-02T07:56:34.485Z,24.84
2018-05-02T07:59:01.312Z,24.88
2018-05-02T08:01:27.924Z,24.92
2018-05-02T08:03:54.612Z,24.84
2018-05-02T08:06:21.266Z,24.87
2018-05-02T08:08:47.908Z,25.03
2018-05-02T08:11:14.522Z,25.09
2018-05-02T08:13:41.162Z,25.21
2018-05-02T08:16:08.022Z,25.18
2018-05-02T08:18:34.665Z,25.09
2018-05-02T08:21:01.312Z,25.10
2018-05-02T08:23:28.003Z,25.03
2018-05-02T08:25:54.607Z,25.13
2018-05-02T08:28:21.263Z,25.13
2018-05-02T08:30:47.904Z,25.16
2018-05-02T08:33:14.698Z,25.21
2018-05-02T08:35:41.336Z,25.04
2018-05-02T08:38:07.938Z,25.10
2018-05-02T08:40:34.627Z,25.28
2018-05-02T08:43:01.227Z,25.24
2018-05-02T08:45:27.954Z,25.05
2018-05-02T08:47:54.591Z,24.96
2018-05-02T08:50:21.195Z,25.06
2018-05-02T08:52:47.829Z,25.26
2018-05-02T08:55:14.461Z,25.14
2018-05-02T08:57:41.137Z,25.16
2018-05-02T09:00:07.742Z,25.06
2018-05-02T09:02:34.458Z,24.96
2018-05-02T09:05:01.127Z,24.94
2018-05-02T09:07:27.738Z,24.86
2018-05-02T09:09:54.378Z,24.87
2018-05-02T09:12:21.020Z,24.81
2018-05-02T09:14:47.663Z,24.85
2018-05-02T09:17:14.335Z,25.01
2018-05-02T09:19:40.966Z,25.06
2018-05-02T09:22:07.610Z,25.07
2018-05-02T09:24:34.254Z,25.08
2018-05-02T09:27:00.929Z,25.07
2018-05-02T09:29:27.563Z,25.00
2018-05-02T09:31:54.262Z,24.91
2018-05-02T09:34:20.868Z,25.04
2018-05-02T09:36:47.555Z,24.99
2018-05-02T09:39:14.183Z,25.05
2018-05-02T09:41:40.857Z,25.00
2018-05-02T09:44:07.548Z,25.13
2018-05-02T09:46:34.105Z,24.96
2018-05-02T09:49:00.746Z,25.13
2018-05-02T09:51:27.398Z,24.95
2018-05-02T09:53:54.081Z,24.91
2018-05-02T09:56:20.729Z,24.95
2018-05-02T09:58:47.319Z,24.98
2018-05-02T10:01:13.973Z,24.83
2018-05-02T10:03:40.619Z,24.88
2018-05-02T10:06:07.256Z,25.09
2018-05-02T10:08:33.927Z,25.10
2018-05-02T10:11:00.577Z,24.95
2018-05-02T10:13:27.214Z,24.87
2018-05-02T10:15:53.853Z,24.82
2018-05-02T10:18:20.496Z,25.01
2018-05-02T10:20:47.157Z,24.83
2018-05-02T10:23:13.772Z,24.84
2018-05-02T10:25:40.456Z,24.92
2018-05-02T10:28:07.278Z,24.77
2018-05-02T10:30:33.928Z,24.75
2018-05-02T10:33:00.596Z,24.96
2018-05-02T10:35:27.239Z,24.94
2018-05-02T10:37:53.857Z,24.95
2018-05-02T10:40:20.487Z,24.97
2018-05-02T10:42:47.168Z,25.08
2018-05-02T10:45:13.804Z,24.93
2018-05-02T10:47:40.443Z,24.95
2018-05-02T10:50:07.087Z,24.97
2018-05-02T10:52:33.765Z,24.81
2018-05-02T10:55:00.373Z,24.87
2018-05-02T10:57:27.045Z,24.78
2018-05-02T10:59:53.652Z,24.96
2018-05-02T11:02:20.299Z,24.81
2018-05-02T11:04:46.964Z,24.81
2018-05-02T11:07:13.641Z,24.74
2018-05-02T11:09:40.310Z,24.92
2018-05-02T11:12:06.921Z,24.90
2018-05-02T11:14:33.569Z,24.92
2018-05-02T11:17:00.255Z,25.03
2018-05-02T11:19:26.926Z,24.98
2018-05-02T11:21:53.572Z,24.95
2018-05-02T11:24:20.209Z,24.89
2018-05-02T11:26:46.814Z,25.06
2018-05-02T11:29:13.452Z,25.00
2018-05-02T11:31:40.092Z,24.99
2018-05-02T11:34:06.760Z,25.17
2018-05-02T11:36:33.387Z,25.25
2018-05-02T11:39:00.058Z,25.08
2018-05-02T11:41:26.687Z,25.00
2018-05-02T11:43:53.328Z,25.05
2018-05-02T11:46:20.152Z,25.02
2018-05-02T11:48:46.693Z,25.06
2018-05-02T11:51:13.438Z,25.04
2018-05-02T11:53:40.112Z,25.10
2018-05-02T11:56:06.841Z,25.26
2018-05-02T11:58:33.437Z,25.22
2018-05-02T12:01:00.088Z,25.12
2018-05-02T12:03:26.797Z,25.05
2018-05-02T12:05:53.403Z,25.13
2018-05-02T12:08:20.007Z,25.17
2018-05-02T12:10:46.653Z,25.08
2018-05-02T12:13:13.294Z,25.01
2018-05-02T12:15:40.034Z,25.05
2018-05-02T12:18:06.632Z,24.98
2018-05-02T12:20:33.390Z,25.13
2018-05-02T12:23:00.008Z,25.12
2018-05-02T12:25:26.687Z,25.05
2018-05-02T12:27:53.337Z,25.13
2018-05-02T12:30:19.964Z,25.03
2018-05-02T12:32:46.563Z,25.00
2018-05-02T12:35:13.206Z,24.96
2018-05-02T12:37:39.887Z,25.00
2018-05-02T12:40:06.582Z,25.29
2018-05-02T12:42:33.277Z,25.14
2018-05-02T12:44:59.894Z,24.95
2018-05-02T12:47:26.573Z,25.00
2018-05-02T12:49:53.496Z,25.04
2018-05-02T12:52:22.777Z,25.15
2018-05-02T12:54:52.669Z,25.22
2018-05-02T12:57:19.353Z,24.86
2018-05-02T12:59:46.163Z,24.60
2018-05-02T13:02:12.784Z,24.62
2018-05-02T13:04:39.444Z,24.76
2018-05-02T13:07:06.131Z,24.95
2018-05-02T13:09:32.769Z,25.03
2018-05-02T13:11:59.369Z,25.13
2018-05-02T13:14:26.044Z,25.16
2018-05-02T13:16:52.659Z,25.16
2018-05-02T13:19:19.342Z,25.13
2018-05-02T13:21:46.023Z,25.27
2018-05-02T13:24:15.507Z,25.20
2018-05-02T13:26:42.121Z,25.07
2018-05-02T13:29:10.852Z,25.07
2018-05-02T13:31:37.533Z,25.04
2018-05-02T13:34:04.135Z,25.10
2018-05-02T13:36:30.826Z,25.17
2018-05-02T13:38:57.484Z,25.19
2018-05-02T13:41:24.131Z,25.24
2018-05-02T13:43:50.802Z,25.18
2018-05-02T13:46:17.444Z,25.16
2018-05-02T13:48:44.069Z,25.12
2018-05-02T13:51:10.714Z,25.13
2018-05-02T13:53:37.321Z,25.08
2018-05-02T13:56:03.989Z,25.25
2018-05-02T13:58:30.638Z,25.20
2018-05-02T14:00:57.326Z,25.13
2018-05-02T14:03:23.963Z,25.07
2018-05-02T14:05:50.729Z,25.06
2018-05-02T14:08:17.433Z,25.13
2018-05-02T14:10:44.016Z,25.07
2018-05-02T14:13:10.673Z,24.99
2018-05-02T14:15:37.321Z,24.94
2018-05-02T14:18:07.248Z,24.93
2018-05-02T14:20:33.885Z,24.94
2018-05-02T14:23:00.519Z,25.09
2018-05-02T14:25:27.126Z,24.88
2018-05-02T14:27:53.814Z,24.81
2018-05-02T14:30:20.421Z,25.03
2018-05-02T14:32:47.117Z,24.95
2018-05-02T14:35:13.717Z,24.94
2018-05-02T14:37:40.354Z,24.96
2018-05-02T14:40:07.150Z,24.89
2018-05-02T14:42:33.820Z,24.80
2018-05-02T14:45:00.510Z,24.62
2018-05-02T14:47:27.109Z,24.72
2018-05-02T14:49:53.790Z,24.60
2018-05-02T14:52:23.562Z,24.59
2018-05-02T14:54:51.361Z,24.77
2018-05-02T14:57:17.956Z,24.70
2018-05-02T14:59:44.638Z,24.49
2018-05-02T15:02:11.360Z,24.51
2018-05-02T15:04:37.957Z,24.51
2018-05-02T15:07:04.563Z,24.44
2018-05-02T15:09:31.250Z,24.46
2018-05-02T15:11:57.889Z,24.43
2018-05-02T15:14:24.525Z,24.44
2018-05-02T15:16:51.207Z,24.40
2018-05-02T15:19:17.838Z,24.41
2018-05-02T15:21:44.488Z,24.41
2018-05-02T15:24:11.088Z,24.35
2018-05-02T15:26:37.759Z,24.32
2018-05-02T15:29:04.398Z,24.45
2018-05-02T15:31:31.037Z,24.30
2018-05-02T15:33:57.665Z,24.35
2018-05-02T15:36:24.346Z,24.23
2018-05-02T15:38:51.016Z,24.24
2018-05-02T15:41:17.684Z,24.21
2018-05-02T15:43:44.298Z,24.02
2018-05-02T15:46:10.949Z,24.35
2018-05-02T15:48:37.624Z,24.11
2018-05-02T15:51:04.292Z,24.26
2018-05-02T15:53:30.892Z,24.35
2018-05-02T15:55:57.530Z,24.29
2018-05-02T15:58:24.253Z,24.17
2018-05-02T16:00:50.810Z,24.22
2018-05-02T16:03:17.494Z,24.16
2018-05-02T16:05:44.138Z,24.12
2018-05-02T16:08:10.803Z,24.12
2018-05-02T16:10:37.436Z,24.12
2018-05-02T16:13:04.039Z,24.26
2018-05-02T16:15:30.681Z,24.15
2018-05-02T16:17:57.330Z,24.10
2018-05-02T16:20:23.995Z,24.03
2018-05-02T16:22:50.653Z,24.09
2018-05-02T16:25:17.250Z,24.02
2018-05-02T16:27:43.982Z,24.23
2018-05-02T16:30:10.587Z,24.30
2018-05-02T16:32:37.191Z,24.34
2018-05-02T16:35:03.870Z,24.41
2018-05-02T16:37:30.544Z,24.28
2018-05-02T16:39:57.184Z,24.10
2018-05-02T16:42:23.848Z,24.09
2018-05-02T16:44:50.448Z,24.02
2018-05-02T16:47:17.097Z,23.98
2018-05-02T16:49:43.747Z,23.94
2018-05-02T16:52:10.386Z,24.03
2018-05-02T16:54:37.061Z,24.11
2018-05-02T16:57:03.692Z,24.16
2018-05-02T16:59:30.329Z,24.42
2018-05-02T17:01:57.040Z,24.45
2018-05-02T17:04:23.751Z,24.36
2018-05-02T17:06:50.274Z,24.11
2018-05-02T17:09:16.945Z,23.97
2018-05-02T17:11:43.574Z,23.85
2018-05-02T17:14:10.186Z,24.03
2018-05-02T17:16:36.851Z,24.08
2018-05-02T17:19:03.449Z,24.29
2018-05-02T17:21:30.116Z,24.39
2018-05-02T17:23:56.757Z,24.42
2018-05-02T17:26:23.429Z,24.09
2018-05-02T17:28:50.068Z,23.89
2018-05-02T17:31:16.702Z,23.79
2018-05-02T17:33:43.383Z,24.00
2018-05-02T17:36:10.028Z,24.03
2018-05-02T17:38:36.629Z,24.13
2018-05-02T17:41:03.268Z,24.27
2018-05-02T17:43:29.940Z,24.43
2018-05-02T17:45:56.576Z,24.40
2018-05-02T17:48:23.235Z,24.46
2018-05-02T17:50:49.846Z,24.22
2018-05-02T17:53:16.488Z,24.05
2018-05-02T17:55:43.162Z,24.03
2018-05-02T17:58:09.759Z,24.01
2018-05-02T18:00:36.469Z,24.13
2018-05-02T18:03:03.106Z,24.24
2018-05-02T18:05:29.773Z,24.34
2018-05-02T18:07:56.352Z,24.40
2018-05-02T18:10:23.012Z,24.10
2018-05-02T18:12:49.661Z,23.96
2018-05-02T18:15:16.336Z,23.95
2018-05-02T18:17:42.976Z,23.97
2018-05-02T18:20:09.576Z,24.09
2018-05-02T18:22:36.243Z,24.22
2018-05-02T18:25:02.874Z,24.20
2018-05-02T18:27:29.513Z,24.25
2018-05-02T18:29:56.122Z,24.23
2018-05-02T18:32:22.792Z,24.25
2018-05-02T18:34:49.404Z,24.29
2018-05-02T18:37:16.143Z,24.27
2018-05-02T18:39:42.824Z,24.33
2018-05-02T18:42:09.422Z,24.34
2018-05-02T18:44:36.091Z,24.37
2018-05-02T18:47:02.755Z,24.28
2018-05-02T18:49:29.421Z,24.24
2018-05-02T18:51:56.059Z,24.31
2018-05-02T18:54:22.691Z,24.31
2018-05-02T18:56:49.339Z,24.31
2018-05-02T18:59:16.004Z,24.32
2018-05-02T19:01:42.627Z,24.05
2018-05-02T19:04:09.283Z,23.92
2018-05-02T19:06:35.881Z,23.91
2018-05-02T19:09:02.592Z,23.96
2018-05-02T19:11:29.219Z,23.98
2018-05-02T19:13:55.855Z,24.09
2018-05-02T19:16:22.523Z,24.12
2018-05-02T19:18:49.127Z,24.15
2018-05-02T19:21:15.799Z,24.12
2018-05-02T19:23:42.443Z,24.13
2018-05-02T19:26:09.107Z,24.15
2018-05-02T19:28:35.755Z,24.19
2018-05-02T19:31:02.362Z,24.21
2018-05-02T19:33:29.037Z,24.23
2018-05-02T19:35:55.673Z,24.24
2018-05-02T19:38:22.398Z,24.22
2018-05-02T19:40:49.044Z,24.23
2018-05-02T19:43:15.672Z,24.19
2018-05-02T19:45:42.343Z,24.26
2018-05-02T19:48:08.943Z,24.18
2018-05-02T19:50:35.633Z,24.18
2018-05-02T19:53:02.270Z,24.20
2018-05-02T19:55:28.906Z,24.18
2018-05-02T19:57:55.549Z,24.13
2018-05-02T20:00:22.213Z,24.08
2018-05-02T20:02:48.865Z,24.11
2018-05-02T20:05:15.497Z,24.15
2018-05-02T20:07:42.173Z,24.14
2018-05-02T20:10:08.848Z,24.12
2018-05-02T20:12:35.452Z,24.14
2018-05-02T20:15:02.126Z,24.12
2018-05-02T20:17:28.761Z,24.13
2018-05-02T20:19:55.393Z,24.10
2018-05-02T20:22:22.038Z,24.08
2018-05-02T20:24:48.679Z,24.06
2018-05-02T20:27:15.346Z,24.07
2018-05-02T20:29:42.044Z,24.04
2018-05-02T20:32:08.671Z,24.03
2018-05-02T20:34:35.300Z,24.08
2018-05-02T20:37:01.944Z,24.09
2018-05-02T20:39:28.577Z,24.07
2018-05-02T20:41:55.246Z,24.06
2018-05-02T20:44:21.862Z,24.07
2018-05-02T20:46:48.531Z,24.06
2018-05-02T20:49:15.161Z,24.06
2018-05-02T20:51:41.791Z,24.08
2018-05-02T20:54:08.399Z,24.04
2018-05-02T20:56:35.055Z,24.06
2018-05-02T20:59:01.661Z,24.07
2018-05-02T21:01:28.334Z,24.05
2018-05-02T21:03:54.974Z,24.05
2018-05-02T21:06:21.678Z,24.02
2018-05-02T21:08:48.336Z,24.03
2018-05-02T21:11:15.007Z,24.01
2018-05-02T21:13:41.611Z,24.02
2018-05-02T21:16:08.296Z,23.98
2018-05-02T21:18:34.964Z,24.01
2018-05-02T21:21:01.568Z,24.00
2018-05-02T21:23:28.234Z,24.00
2018-05-02T21:25:54.843Z,23.97
2018-05-02T21:28:21.517Z,24.00
2018-05-02T21:30:48.186Z,23.98
2018-05-02T21:33:14.847Z,23.94
2018-05-02T21:35:41.455Z,23.98
2018-05-02T21:38:08.133Z,23.98
2018-05-02T21:40:34.924Z,23.89
2018-05-02T21:43:01.472Z,23.89
2018-05-02T21:45:28.109Z,23.93
2018-05-02T21:47:54.774Z,23.91
2018-05-02T21:50:21.378Z,23.92
2018-05-02T21:52:48.011Z,23.94
2018-05-02T21:55:14.688Z,23.89
2018-05-02T21:57:41.290Z,23.90
2018-05-02T22:00:07.960Z,23.88
2018-05-02T22:02:34.581Z,23.88
2018-05-02T22:05:01.214Z,23.88
2018-05-02T22:07:27.858Z,23.85
2018-05-02T22:09:54.527Z,23.88
2018-05-02T22:12:21.123Z,23.86
2018-05-02T22:14:47.833Z,23.84
2018-05-02T22:17:14.434Z,23.85
2018-05-02T22:19:41.074Z,23.83
2018-05-02T22:22:07.752Z,23.81
2018-05-02T22:24:34.394Z,23.78
2018-05-02T22:27:01.138Z,23.84
2018-05-02T22:29:27.799Z,23.80
2018-05-02T22:31:54.511Z,23.81
2018-05-02T22:34:21.105Z,23.77
2018-05-02T22:36:47.742Z,23.75
2018-05-02T22:39:14.383Z,23.75
2018-05-02T22:41:41.014Z,23.75
2018-05-02T22:44:07.685Z,23.72
2018-05-02T22:46:35.358Z,23.71
2018-05-02T22:49:02.070Z,23.77
2018-05-02T22:51:28.673Z,23.72
2018-05-02T22:53:55.335Z,23.71
2018-05-02T22:56:21.981Z,23.69
2018-05-02T22:58:48.618Z,23.70
2018-05-02T23:01:15.295Z,23.69
2018-05-02T23:03:41.891Z,23.67
2018-05-02T23:06:08.567Z,23.66
2018-05-02T23:08:35.243Z,23.65
2018-05-02T23:11:01.849Z,23.64
2018-05-02T23:13:28.486Z,23.66
2018-05-02T23:15:55.156Z,23.62
2018-05-02T23:18:21.809Z,23.66
2018-05-02T23:20:48.435Z,23.67
2018-05-02T23:23:15.068Z,23.64
2018-05-02T23:25:41.709Z,23.58
2018-05-02T23:28:08.376Z,23.58
2018-05-02T23:30:35.044Z,23.63
2018-05-02T23:33:01.719Z,23.59
2018-05-02T23:35:28.410Z,23.59
2018-05-02T23:37:55.008Z,23.59
2018-05-02T23:40:21.658Z,23.56
2018-05-02T23:42:48.293Z,23.59
2018-05-02T23:45:18.027Z,23.52
2018-05-02T23:47:44.631Z,23.55
2018-05-02T23:50:11.308Z,23.54
2018-05-02T23:52:37.925Z,23.48
2018-05-02T23:55:04.601Z,23.52
2018-05-02T23:57:31.235Z,23.52
2018-05-02T23:59:57.949Z,23.51
